Oakland, Minnesota
Current Conditions -  °F | °C
As of 9:55 AM on Friday 28 Nov 2014 (Local Time) from KAUM Reporting Station
Clear Clear  
Wind Chill:   Ceiling: Unl
Heat Index: 18°   Visibility: 10mi
Dew Point: 10°   Wind: 13mph
Humidity: 73%   Direction: 150°SSE
Pressure: 29.92"   Gusts: NA
Location:  43.67°N, 93.09°W
Report Text: KAUM 281555Z AUTO 15011KT 10SM CLR M08/M12 A2992 RMK AO2
Loading
Personal Weather Stations






























Interactive Weather Map New forecast layout! Learn more

10-Day Weather Forecast

Advertisements
Track Severe Weather on mobile